createdAt,value
2022-11-05T00:00:00.310Z,0
2022-11-05T00:05:00.403Z,0
2022-11-05T00:10:00.269Z,0
2022-11-05T00:15:00.298Z,0
2022-11-05T00:20:00.327Z,0
2022-11-05T00:25:00.261Z,0
2022-11-05T00:30:00.305Z,0
2022-11-05T00:35:00.257Z,0
2022-11-05T00:40:00.270Z,0
2022-11-05T00:45:00.289Z,0
2022-11-05T00:50:00.259Z,0
2022-11-05T00:55:00.275Z,0
2022-11-05T01:00:00.351Z,0
2022-11-05T01:05:00.318Z,0
2022-11-05T01:10:00.312Z,0
2022-11-05T01:15:00.289Z,0
2022-11-05T01:20:00.261Z,0
2022-11-05T01:25:00.290Z,0
2022-11-05T01:30:00.391Z,0
2022-11-05T01:35:00.280Z,0
2022-11-05T01:40:00.244Z,0
2022-11-05T01:45:00.333Z,0
2022-11-05T01:50:00.333Z,0
2022-11-05T01:55:00.273Z,0
2022-11-05T02:00:00.312Z,0
2022-11-05T02:05:00.287Z,0
2022-11-05T02:10:00.250Z,0
2022-11-05T02:15:00.381Z,0
2022-11-05T02:20:00.257Z,0
2022-11-05T02:25:00.279Z,0
2022-11-05T02:30:00.294Z,0
2022-11-05T02:35:00.270Z,0
2022-11-05T02:40:00.282Z,0
2022-11-05T02:45:00.265Z,0
2022-11-05T02:50:00.285Z,0
2022-11-05T02:55:00.307Z,0
2022-11-05T03:00:00.545Z,0
2022-11-05T03:05:00.261Z,0
2022-11-05T03:10:00.270Z,0
2022-11-05T03:15:00.279Z,0
2022-11-05T03:20:00.259Z,0
2022-11-05T03:25:00.261Z,0
2022-11-05T03:30:00.293Z,0
2022-11-05T03:35:00.242Z,0
2022-11-05T03:40:00.287Z,0
2022-11-05T03:45:00.285Z,0
2022-11-05T03:50:00.270Z,0
2022-11-05T03:55:00.294Z,0
2022-11-05T04:00:00.338Z,0
2022-11-05T04:05:00.333Z,0
2022-11-05T04:10:00.375Z,0
2022-11-05T04:15:00.285Z,0
2022-11-05T04:20:00.263Z,0
2022-11-05T04:25:00.339Z,0
2022-11-05T04:30:00.298Z,0
2022-11-05T04:35:00.286Z,0
2022-11-05T04:40:00.247Z,0
2022-11-05T04:45:00.276Z,0
2022-11-05T04:50:00.266Z,0
2022-11-05T04:55:00.295Z,0
2022-11-05T05:00:00.303Z,0
2022-11-05T05:05:00.295Z,0
2022-11-05T05:10:00.280Z,0
2022-11-05T05:15:00.333Z,0
2022-11-05T05:20:00.277Z,0
2022-11-05T05:25:00.309Z,0
2022-11-05T05:30:00.718Z,0
2022-11-05T05:35:00.252Z,0
2022-11-05T05:40:00.301Z,0
2022-11-05T05:45:00.343Z,0
2022-11-05T05:50:00.308Z,0
2022-11-05T05:55:00.322Z,0
2022-11-05T06:00:00.357Z,2
2022-11-05T06:05:00.280Z,3
2022-11-05T06:10:00.287Z,5
2022-11-05T06:15:00.272Z,10
2022-11-05T06:20:00.294Z,24
2022-11-05T06:25:00.289Z,50
2022-11-05T06:30:00.322Z,91
2022-11-05T06:35:00.349Z,176
2022-11-05T06:40:00.396Z,291
2022-11-05T06:45:00.310Z,406
2022-11-05T06:50:00.316Z,554
2022-11-05T06:55:00.341Z,699
2022-11-05T07:00:03.390Z,882
2022-11-05T07:05:00.351Z,1115
2022-11-05T07:10:02.022Z,1303
2022-11-05T07:15:00.378Z,1407
2022-11-05T07:20:00.251Z,1579
2022-11-05T07:25:00.348Z,1579
2022-11-05T07:30:00.310Z,1772
2022-11-05T07:35:00.397Z,1772
2022-11-05T07:40:00.275Z,1989
2022-11-05T07:45:00.287Z,2234
2022-11-05T07:50:00.342Z,2512
2022-11-05T07:55:00.267Z,2825
2022-11-05T08:00:00.288Z,2825
2022-11-05T08:05:00.277Z,2611
2022-11-05T08:10:00.419Z,2611
2022-11-05T08:15:00.296Z,2611
2022-11-05T08:20:00.285Z,2611
2022-11-05T08:25:06.471Z,2611
2022-11-05T08:30:00.293Z,2611
2022-11-05T08:35:00.269Z,2611
2022-11-05T08:40:00.281Z,2611
2022-11-05T08:45:00.335Z,2611
2022-11-05T08:50:00.332Z,2611
2022-11-05T08:55:00.250Z,3192
2022-11-05T09:00:00.319Z,3357
2022-11-05T09:05:00.317Z,3587
2022-11-05T09:10:00.338Z,3587
2022-11-05T09:15:00.295Z,3587
2022-11-05T09:20:00.332Z,4032
2022-11-05T09:25:00.276Z,4530
2022-11-05T09:30:00.298Z,4530
2022-11-05T09:35:00.296Z,5103
2022-11-05T09:40:00.444Z,5103
2022-11-05T09:45:00.275Z,5103
2022-11-05T09:50:00.242Z,5733
2022-11-05T09:55:00.243Z,5865
2022-11-05T10:00:00.359Z,5865
2022-11-05T10:05:04.905Z,5673
2022-11-05T10:10:00.269Z,6473
2022-11-05T10:15:00.263Z,7298
2022-11-05T10:20:00.271Z,7298
2022-11-05T10:25:00.260Z,7213
2022-11-05T10:30:00.535Z,7228
2022-11-05T10:35:00.231Z,8149
2022-11-05T10:40:00.354Z,9166
2022-11-05T10:45:00.408Z,9166
2022-11-05T10:50:00.228Z,8944
2022-11-05T10:55:00.255Z,8944
2022-11-05T11:00:00.407Z,8944
2022-11-05T11:05:00.235Z,8170
2022-11-05T11:10:00.289Z,8153
2022-11-05T11:15:00.316Z,8153
2022-11-05T11:20:00.279Z,8153
2022-11-05T11:25:00.234Z,8153
2022-11-05T11:30:00.308Z,8153
2022-11-05T11:35:00.280Z,7254
2022-11-05T11:40:00.279Z,7254
2022-11-05T11:45:00.268Z,8160
2022-11-05T11:50:00.318Z,8160
2022-11-05T11:55:00.283Z,9173
2022-11-05T12:00:09.267Z,9173
2022-11-05T12:05:00.295Z,9173
2022-11-05T12:10:00.366Z,8155
2022-11-05T12:15:00.269Z,7241
2022-11-05T12:20:00.269Z,6445
2022-11-05T12:25:00.351Z,5762
2022-11-05T12:30:00.295Z,5762
2022-11-05T12:35:00.257Z,6468
2022-11-05T12:40:00.478Z,6903
2022-11-05T12:45:00.249Z,8166
2022-11-05T12:50:00.289Z,8166
2022-11-05T12:55:00.272Z,9213
2022-11-05T13:00:00.259Z,9213
2022-11-05T13:05:00.258Z,9213
2022-11-05T13:10:00.251Z,9213
2022-11-05T13:15:00.283Z,7259
2022-11-05T13:20:00.237Z,7259
2022-11-05T13:25:00.319Z,7259
2022-11-05T13:30:00.259Z,7259
2022-11-05T13:35:00.300Z,5707
2022-11-05T13:40:00.255Z,5072
2022-11-05T13:45:00.293Z,4568
2022-11-05T13:50:00.283Z,4513
2022-11-05T13:55:00.332Z,4015
2022-11-05T14:00:00.310Z,4015
2022-11-05T14:05:01.603Z,4015
2022-11-05T14:10:00.289Z,4015
2022-11-05T14:15:00.380Z,4015
2022-11-05T14:20:00.327Z,4015
2022-11-05T14:25:00.260Z,5112
2022-11-05T14:30:00.337Z,5752
2022-11-05T14:35:00.291Z,5752
2022-11-05T14:40:00.310Z,16289
2022-11-05T14:45:00.319Z,5507
2022-11-05T14:50:00.344Z,4118
2022-11-05T14:55:00.337Z,3065
2022-11-05T15:00:00.306Z,2410
2022-11-05T15:05:00.281Z,1785
2022-11-05T15:10:03.198Z,1518
2022-11-05T15:15:00.290Z,1352
2022-11-05T15:20:00.318Z,1352
2022-11-05T15:25:00.294Z,1315
2022-11-05T15:30:00.410Z,1068
2022-11-05T15:35:00.270Z,843
2022-11-05T15:40:00.268Z,667
2022-11-05T15:45:00.339Z,463
2022-11-05T15:50:00.264Z,328
2022-11-05T15:55:00.297Z,181
2022-11-05T16:00:00.407Z,111
2022-11-05T16:05:00.383Z,86
2022-11-05T16:10:00.292Z,41
2022-11-05T16:15:00.300Z,24
2022-11-05T16:20:00.450Z,12
2022-11-05T16:25:00.289Z,6
2022-11-05T16:30:00.413Z,3
2022-11-05T16:35:00.252Z,2
2022-11-05T16:40:00.395Z,0
2022-11-05T16:45:00.245Z,0
2022-11-05T16:50:00.256Z,0
2022-11-05T16:55:00.303Z,0
2022-11-05T17:00:00.261Z,0
2022-11-05T17:05:02.596Z,0
2022-11-05T17:10:00.287Z,0
2022-11-05T17:15:00.267Z,0
2022-11-05T17:20:00.241Z,0
2022-11-05T17:25:00.617Z,0
2022-11-05T17:30:00.283Z,0
2022-11-05T17:35:00.291Z,0
2022-11-05T17:40:00.297Z,0
2022-11-05T17:45:00.395Z,0
2022-11-05T17:50:00.285Z,0
2022-11-05T17:55:00.300Z,0
2022-11-05T18:00:00.298Z,0
2022-11-05T18:05:00.259Z,0
2022-11-05T18:10:00.314Z,0
2022-11-05T18:15:00.327Z,0
2022-11-05T18:20:00.305Z,0
2022-11-05T18:25:00.335Z,0
2022-11-05T18:30:00.284Z,0
2022-11-05T18:35:00.284Z,0
2022-11-05T18:40:00.276Z,0
2022-11-05T18:45:00.255Z,0
2022-11-05T18:50:00.303Z,0
2022-11-05T18:55:00.323Z,0
2022-11-05T19:00:00.267Z,0
2022-11-05T19:05:27.908Z,0
2022-11-05T19:10:00.273Z,0
2022-11-05T19:15:02.859Z,0
2022-11-05T19:20:00.259Z,0
2022-11-05T19:25:00.327Z,0
2022-11-05T19:30:00.333Z,0
2022-11-05T19:35:00.273Z,0
2022-11-05T19:40:00.289Z,0
2022-11-05T19:45:16.648Z,0
2022-11-05T19:50:00.328Z,0
2022-11-05T19:55:00.316Z,0
2022-11-05T20:00:00.416Z,0
2022-11-05T20:05:00.281Z,0
2022-11-05T20:10:00.366Z,0
2022-11-05T20:15:00.222Z,0
2022-11-05T20:20:00.221Z,0
2022-11-05T20:25:00.239Z,0
2022-11-05T20:30:00.229Z,0
2022-11-05T20:35:00.232Z,0
2022-11-05T20:40:00.221Z,0
2022-11-05T20:45:00.218Z,0
2022-11-05T20:50:00.224Z,0
2022-11-05T20:55:00.277Z,0
2022-11-05T21:00:00.304Z,0
2022-11-05T21:05:00.230Z,0
2022-11-05T21:10:00.219Z,0
2022-11-05T21:15:00.213Z,0
2022-11-05T21:20:00.221Z,0
2022-11-05T21:25:00.219Z,0
2022-11-05T21:30:00.244Z,0
2022-11-05T21:35:00.212Z,0
2022-11-05T21:40:00.218Z,0
2022-11-05T21:45:00.805Z,0
2022-11-05T21:50:00.197Z,0
2022-11-05T21:55:00.213Z,0
2022-11-05T22:00:00.211Z,0
2022-11-05T22:05:00.371Z,0
2022-11-05T22:10:00.210Z,0
2022-11-05T22:15:00.219Z,0
2022-11-05T22:20:00.201Z,0
2022-11-05T22:25:00.207Z,0
2022-11-05T22:30:00.211Z,0
2022-11-05T22:35:00.202Z,0
2022-11-05T22:40:00.222Z,0
2022-11-05T22:45:00.216Z,0
2022-11-05T22:50:00.221Z,0
2022-11-05T22:55:00.212Z,0
2022-11-05T23:00:00.470Z,0
2022-11-05T23:05:00.224Z,0
2022-11-05T23:10:00.206Z,0
2022-11-05T23:15:00.195Z,0
2022-11-05T23:20:00.212Z,0
2022-11-05T23:25:00.199Z,0
2022-11-05T23:30:00.219Z,0
2022-11-05T23:35:00.209Z,0
2022-11-05T23:40:00.346Z,0
2022-11-05T23:45:00.211Z,0
2022-11-05T23:50:00.204Z,0
2022-11-05T23:55:00.209Z,0
